Dyke, VA (22935)

7:31 PM EST on February 07, 2016 (GMT -0500)
Blue Ridge Observatory - Flattop Mtn | | Change Station
CLOSE
Current Station
Personal Weather Station
Location: Dyke, VA
Elevation: 3250 ft
Nearby Weather Stations

Elev 3250 ft 38.30 °N, 78.60 °W | Updated 51 seconds ago

Clear
Clear
31.0 °F
Feels Like 23 °F
N
10.0
Wind Variable Wind from NW
Gusts 15.0 mph

Today
High -- | Low -- °F
--% Chance of Precip.
Yesterday
High -- | Low -- °F
Precip. -- in
Pressure 29.95 in
Visibility 10.0 miles
Clouds Clear
Windchill 23 °F
Dew Point 22 °F
Humidity 69%
Rainfall 0.00 in
Snow Depth Not available.
7:14 AM 5:43 PM
Waning Crescent, 0% visible
METAR KCHO 072353Z 04003KT 10SM CLR 04/M06 A2994 RMK AO2 SLP141 T00441056 10078 20044 56008
Pressure 29.95 in
Visibility 10.0 miles
Clouds Clear
Windchill 23 °F
Dew Point 22 °F
Humidity 69%
Rainfall 0.00 in
Snow Depth Not available.
7:14 AM 5:43 PM
Waning Crescent, 0% visible
METAR KCHO 072353Z 04003KT 10SM CLR 04/M06 A2994 RMK AO2 SLP141 T00441056 10078 20044 56008

10-Day Weather Forecast

Almanac

Astronomy

Feb. 07, 2016 Rise Set
Actual Time
Civil Twilight
Nautical Twilight
Astronomical Twilight
Moon
Length of Visible Light
Length of Day
Tomorrow will be .
, % of the Moon is Illuminated

Today's Extremes

State Highs State Lows

Community

WunderPhotos

Upload Photos

1,891,340 photos uploaded!

WunderBlog® & News

Nearby

Air Quality

  Air Quality AQ Index Pollutant
Not available.

Snow Depth

Station Depth Elevation

Earthquake Activity

City Distance Mag. Time & Date
Minimum magnitude displayed is 2.5.

Coastal Water Temperatures

Place Temperature

Stations

Nearby Weather Stations

Station Location Temp. Windchill Dew Point Humidity Wind Precip. Elev Updated Type
                   

Watches & Warnings

There are currently no watches in effect.